createdAt,value
2023-12-17T00:01:50.785Z,14.70
2023-12-17T00:04:19.094Z,14.63
2023-12-17T00:06:48.621Z,14.70
2023-12-17T00:09:16.816Z,15.00
2023-12-17T00:11:45.080Z,14.73
2023-12-17T00:14:14.437Z,13.70
2023-12-17T00:16:43.997Z,13.90
2023-12-17T00:19:12.205Z,13.30
2023-12-17T00:21:40.382Z,12.10
2023-12-17T00:24:08.666Z,11.47
2023-12-17T00:26:36.811Z,11.20
2023-12-17T00:29:05.000Z,10.40
2023-12-17T00:31:33.193Z,10.60
2023-12-17T00:34:02.977Z,10.87
2023-12-17T00:36:31.123Z,9.77
2023-12-17T00:38:59.275Z,9.97
2023-12-17T00:41:27.433Z,9.73
2023-12-17T00:43:55.539Z,9.97
2023-12-17T00:46:23.673Z,9.23
2023-12-17T00:48:51.876Z,9.80
2023-12-17T00:51:21.885Z,10.97
2023-12-17T00:53:50.035Z,9.83
2023-12-17T00:56:18.711Z,10.20
2023-12-17T00:58:46.891Z,10.33
2023-12-17T01:01:15.052Z,11.13
2023-12-17T01:03:43.321Z,11.03
2023-12-17T01:06:11.672Z,11.17
2023-12-17T01:08:41.791Z,10.43
2023-12-17T01:11:10.008Z,10.10
2023-12-17T01:13:38.264Z,10.10
2023-12-17T01:16:07.402Z,11.03
2023-12-17T01:18:37.123Z,10.47
2023-12-17T01:21:07.661Z,9.40
2023-12-17T01:23:37.547Z,10.10
2023-12-17T01:26:07.376Z,10.03
2023-12-17T01:28:36.579Z,9.67
2023-12-17T01:31:04.916Z,9.93
2023-12-17T01:33:33.148Z,9.73
2023-12-17T01:36:01.484Z,9.13
2023-12-17T01:38:30.109Z,9.67
2023-12-17T01:40:58.227Z,9.50
2023-12-17T01:43:27.764Z,9.00
2023-12-17T01:45:56.704Z,9.70
2023-12-17T01:48:27.407Z,9.27
2023-12-17T01:50:56.901Z,9.30
2023-12-17T01:53:25.861Z,9.80
2023-12-17T01:55:57.141Z,9.80
2023-12-17T01:58:25.642Z,10.03
2023-12-17T02:00:56.373Z,10.07
2023-12-17T02:03:24.637Z,9.87
2023-12-17T02:05:53.012Z,11.03
2023-12-17T02:08:21.278Z,9.93
2023-12-17T02:10:49.484Z,11.27
2023-12-17T02:13:18.875Z,10.97
2023-12-17T02:15:49.489Z,10.60
2023-12-17T02:18:19.054Z,9.97
2023-12-17T02:20:51.264Z,11.10
2023-12-17T02:23:21.347Z,10.80
2023-12-17T02:25:49.640Z,11.40
2023-12-17T02:28:17.833Z,10.87
2023-12-17T02:30:46.091Z,12.03
2023-12-17T02:33:14.451Z,12.10
2023-12-17T02:35:42.979Z,11.03
2023-12-17T02:38:11.169Z,11.27
2023-12-17T02:40:40.698Z,10.97
2023-12-17T02:43:08.900Z,10.87
2023-12-17T02:45:36.988Z,11.90
2023-12-17T02:48:05.262Z,12.87
2023-12-17T02:50:33.483Z,12.60
2023-12-17T02:53:01.717Z,13.53
2023-12-17T02:55:29.877Z,13.40
2023-12-17T02:57:59.427Z,13.20
2023-12-17T03:00:27.569Z,12.57
2023-12-17T03:02:55.801Z,12.50
2023-12-17T03:05:24.053Z,12.43
2023-12-17T03:07:52.223Z,11.63
2023-12-17T03:10:20.381Z,11.87
2023-12-17T03:12:48.561Z,12.20
2023-12-17T03:15:18.284Z,12.47
2023-12-17T03:17:46.607Z,11.50
2023-12-17T03:20:14.986Z,13.67
2023-12-17T03:22:43.625Z,13.87
2023-12-17T03:25:11.757Z,14.40
2023-12-17T03:27:40.110Z,14.87
2023-12-17T03:30:09.857Z,14.50
2023-12-17T03:32:39.475Z,13.53
2023-12-17T03:35:08.654Z,12.93
2023-12-17T03:37:36.805Z,12.27
2023-12-17T03:40:05.550Z,12.83
2023-12-17T03:42:33.675Z,12.27
2023-12-17T03:45:02.592Z,11.17
2023-12-17T03:47:30.951Z,11.23
2023-12-17T03:50:00.600Z,10.77
2023-12-17T03:52:28.757Z,11.17
2023-12-17T03:54:56.848Z,12.27
2023-12-17T03:57:25.232Z,11.77
2023-12-17T03:59:53.508Z,12.93
2023-12-17T04:02:21.765Z,11.97
2023-12-17T04:04:49.950Z,11.77
2023-12-17T04:07:19.547Z,12.00
2023-12-17T04:09:49.105Z,12.07
2023-12-17T04:12:17.333Z,12.53
2023-12-17T04:14:45.545Z,13.60
2023-12-17T04:17:13.725Z,12.80
2023-12-17T04:19:42.198Z,13.07
2023-12-17T04:22:10.448Z,14.17
2023-12-17T04:24:40.518Z,13.50
2023-12-17T04:27:08.736Z,13.80
2023-12-17T04:29:36.865Z,15.07
2023-12-17T04:32:05.652Z,15.93
2023-12-17T04:34:33.933Z,16.67
2023-12-17T04:37:02.138Z,17.70
2023-12-17T04:39:30.295Z,15.90
2023-12-17T04:41:59.827Z,14.60
2023-12-17T04:44:27.958Z,13.10
2023-12-17T04:46:58.808Z,14.20
2023-12-17T04:49:27.141Z,14.00
2023-12-17T04:51:55.338Z,14.47
2023-12-17T04:54:23.687Z,14.50
2023-12-17T04:56:51.905Z,14.63
2023-12-17T04:59:21.571Z,16.57
2023-12-17T05:01:49.662Z,17.77
2023-12-17T05:04:18.677Z,19.87
2023-12-17T05:06:46.950Z,18.73
2023-12-17T05:09:15.409Z,18.70
2023-12-17T05:11:43.666Z,18.77
2023-12-17T05:14:11.769Z,18.33
2023-12-17T05:16:43.254Z,18.73
2023-12-17T05:19:11.898Z,18.43
2023-12-17T05:21:40.110Z,18.10
2023-12-17T05:24:08.422Z,17.80
2023-12-17T05:26:37.065Z,18.53
2023-12-17T05:29:05.217Z,17.03
2023-12-17T05:31:33.419Z,17.97
2023-12-17T05:34:03.064Z,16.80
2023-12-17T05:36:31.273Z,16.97
2023-12-17T05:38:59.494Z,16.77
2023-12-17T05:41:27.964Z,16.57
2023-12-17T05:43:58.069Z,16.77
2023-12-17T05:46:27.840Z,17.07
2023-12-17T05:48:56.585Z,18.70
2023-12-17T05:51:26.302Z,18.53
2023-12-17T05:53:54.709Z,18.50
2023-12-17T05:56:22.889Z,24.03
2023-12-17T05:58:51.027Z,24.40
2023-12-17T06:01:19.348Z,26.63
2023-12-17T06:03:48.025Z,27.13
2023-12-17T06:06:16.572Z,28.53
2023-12-17T06:08:46.342Z,27.67
2023-12-17T06:11:17.553Z,28.97
2023-12-17T06:13:49.324Z,28.33
2023-12-17T06:16:17.432Z,27.03
2023-12-17T06:18:45.845Z,23.97
2023-12-17T06:21:23.451Z,25.13
2023-12-17T06:23:53.429Z,23.83
2023-12-17T06:26:21.700Z,24.03
2023-12-17T06:28:49.946Z,22.47
2023-12-17T06:31:18.950Z,22.40
2023-12-17T06:33:47.969Z,21.30
2023-12-17T06:36:16.445Z,21.67
2023-12-17T06:38:44.717Z,20.93
2023-12-17T06:41:14.607Z,20.37
2023-12-17T06:43:43.153Z,18.07
2023-12-17T06:46:16.733Z,17.13
2023-12-17T06:48:45.102Z,18.00
2023-12-17T06:51:13.596Z,17.40
2023-12-17T06:53:41.740Z,17.33
2023-12-17T06:56:10.400Z,17.93
2023-12-17T06:58:39.992Z,17.33
2023-12-17T07:01:08.312Z,18.67
2023-12-17T07:03:36.465Z,17.70
2023-12-17T07:06:05.133Z,16.77
2023-12-17T07:08:33.276Z,17.53
2023-12-17T07:11:01.423Z,16.17
2023-12-17T07:13:29.737Z,16.97
2023-12-17T07:15:59.697Z,17.80
2023-12-17T07:18:28.011Z,16.80
2023-12-17T07:20:56.611Z,17.73
2023-12-17T07:23:26.786Z,17.00
2023-12-17T07:25:56.010Z,16.60
2023-12-17T07:28:24.375Z,16.40
2023-12-17T07:30:52.628Z,16.37
2023-12-17T07:33:22.239Z,16.90
2023-12-17T07:35:50.451Z,16.93
2023-12-17T07:38:19.309Z,17.97
2023-12-17T07:40:47.544Z,16.93
2023-12-17T07:43:15.653Z,16.70
2023-12-17T07:45:43.931Z,15.73
2023-12-17T07:48:12.301Z,16.77
2023-12-17T07:50:42.416Z,15.77
2023-12-17T07:53:10.675Z,16.47
2023-12-17T07:55:38.871Z,15.97
2023-12-17T07:58:07.064Z,16.60
2023-12-17T08:00:35.415Z,16.40
2023-12-17T08:03:04.324Z,15.77
2023-12-17T08:05:32.638Z,15.80
2023-12-17T08:08:03.237Z,16.50
2023-12-17T08:10:31.397Z,15.20
2023-12-17T08:12:59.891Z,15.30
2023-12-17T08:15:28.210Z,16.27
2023-12-17T08:17:59.231Z,17.33
2023-12-17T08:20:27.427Z,18.63
2023-12-17T08:22:55.701Z,16.90
2023-12-17T08:25:26.463Z,16.43
2023-12-17T08:27:54.700Z,16.67
2023-12-17T08:30:22.945Z,16.77
2023-12-17T08:32:51.178Z,15.50
2023-12-17T08:35:20.332Z,15.80
2023-12-17T08:37:49.130Z,15.43
2023-12-17T08:40:17.738Z,14.93
2023-12-17T08:42:47.853Z,13.80
2023-12-17T08:45:16.242Z,14.53
2023-12-17T08:47:44.869Z,14.43
2023-12-17T08:50:14.280Z,14.83
2023-12-17T08:52:42.508Z,14.20
2023-12-17T08:55:11.792Z,14.43
2023-12-17T08:57:40.275Z,15.53
2023-12-17T09:00:11.316Z,15.83
2023-12-17T09:02:39.621Z,13.60
2023-12-17T09:05:08.243Z,13.80
2023-12-17T09:07:37.753Z,14.43
2023-12-17T09:10:06.864Z,14.27
2023-12-17T09:12:35.218Z,14.00
2023-12-17T09:15:03.421Z,13.63
2023-12-17T09:17:33.089Z,13.57
2023-12-17T09:20:01.264Z,12.27
2023-12-17T09:22:29.481Z,12.60
2023-12-17T09:24:57.735Z,12.27
2023-12-17T09:27:26.167Z,12.00
2023-12-17T09:29:54.430Z,12.23
2023-12-17T09:32:22.665Z,11.03
2023-12-17T09:34:52.267Z,11.03
2023-12-17T09:37:21.802Z,11.90
2023-12-17T09:39:49.994Z,9.87
2023-12-17T09:42:21.842Z,10.07
2023-12-17T09:44:52.547Z,10.43
2023-12-17T09:47:20.785Z,10.70
2023-12-17T09:49:48.992Z,10.47
2023-12-17T09:52:21.044Z,9.57
2023-12-17T09:54:50.564Z,9.77
2023-12-17T09:57:19.175Z,9.67
2023-12-17T09:59:47.392Z,9.90
2023-12-17T10:02:17.186Z,9.40
2023-12-17T10:04:45.402Z,9.83
2023-12-17T10:07:14.614Z,9.80
2023-12-17T10:09:45.220Z,8.93
2023-12-17T10:12:13.459Z,9.37
2023-12-17T10:14:42.097Z,9.83
2023-12-17T10:17:10.396Z,9.67
2023-12-17T10:19:38.714Z,9.33
2023-12-17T10:22:08.633Z,9.50
2023-12-17T10:24:39.058Z,8.93
2023-12-17T10:27:17.985Z,8.90
2023-12-17T10:29:50.020Z,8.30
2023-12-17T10:32:23.569Z,9.40
2023-12-17T10:34:53.270Z,10.23
2023-12-17T10:37:23.971Z,9.00
2023-12-17T10:39:54.601Z,9.23
2023-12-17T10:42:26.736Z,8.67
2023-12-17T10:44:56.721Z,8.40
2023-12-17T10:47:27.754Z,8.57
2023-12-17T10:49:56.198Z,9.20
2023-12-17T10:52:25.329Z,8.47
2023-12-17T10:54:53.603Z,7.97
2023-12-17T10:57:26.714Z,8.07
2023-12-17T10:59:58.720Z,7.90
2023-12-17T11:02:28.618Z,7.40
2023-12-17T11:04:58.359Z,7.80
2023-12-17T11:07:35.617Z,8.23
2023-12-17T11:10:08.833Z,8.03
2023-12-17T11:12:40.711Z,8.23
2023-12-17T11:15:09.728Z,8.00
2023-12-17T11:17:42.189Z,8.10
2023-12-17T11:20:12.468Z,7.63
2023-12-17T11:23:01.679Z,8.00
2023-12-17T11:25:33.214Z,7.77
2023-12-17T11:28:03.036Z,7.83
2023-12-17T11:30:31.952Z,8.40
2023-12-17T11:33:01.113Z,8.43
2023-12-17T11:35:30.503Z,7.27
2023-12-17T11:37:59.347Z,7.53
2023-12-17T11:40:28.941Z,8.70
2023-12-17T11:42:59.030Z,8.47
2023-12-17T11:45:41.008Z,8.37
2023-12-17T11:48:12.058Z,7.17
2023-12-17T11:50:46.158Z,7.47
2023-12-17T11:53:15.609Z,7.63
2023-12-17T11:55:48.160Z,8.70
2023-12-17T11:58:18.750Z,7.67
2023-12-17T12:03:41.947Z,7.37
2023-12-17T12:06:13.288Z,7.23
2023-12-17T12:08:43.310Z,7.60
2023-12-17T12:11:15.375Z,7.40
2023-12-17T12:13:45.243Z,6.90
2023-12-17T12:16:14.431Z,7.30
2023-12-17T12:18:44.477Z,7.20
2023-12-17T12:21:20.119Z,6.97
2023-12-17T12:23:53.691Z,7.63
2023-12-17T12:26:22.107Z,7.30
2023-12-17T12:28:57.227Z,8.20
2023-12-17T12:31:26.040Z,7.03
2023-12-17T12:33:57.083Z,7.30
2023-12-17T12:36:25.485Z,7.10
2023-12-17T12:39:04.917Z,7.13
2023-12-17T12:41:33.916Z,6.93
2023-12-17T12:44:02.297Z,7.57
2023-12-17T12:46:31.086Z,7.33
2023-12-17T12:49:01.233Z,7.73
2023-12-17T12:51:31.304Z,7.10
2023-12-17T12:53:59.762Z,7.70
2023-12-17T12:56:27.925Z,7.87
2023-12-17T12:58:56.179Z,7.57
2023-12-17T13:01:24.356Z,8.03
2023-12-17T13:03:52.730Z,7.20
2023-12-17T13:06:22.397Z,7.40
2023-12-17T13:08:50.685Z,7.07
2023-12-17T13:11:19.681Z,7.10
2023-12-17T13:13:47.908Z,7.33
2023-12-17T13:16:16.344Z,7.67
2023-12-17T13:18:44.744Z,8.13
2023-12-17T13:21:13.479Z,6.83
2023-12-17T13:23:43.048Z,7.23
2023-12-17T13:26:17.382Z,7.57
2023-12-17T13:28:48.081Z,6.70
2023-12-17T13:31:16.442Z,6.37
2023-12-17T13:33:44.842Z,6.63
2023-12-17T13:36:13.319Z,7.30
2023-12-17T13:38:42.938Z,7.17
2023-12-17T13:41:11.179Z,6.93
2023-12-17T13:43:39.650Z,6.57
2023-12-17T13:46:08.277Z,6.93
2023-12-17T13:48:36.659Z,6.93
2023-12-17T13:51:05.385Z,6.57
2023-12-17T13:53:33.761Z,6.53
2023-12-17T13:56:03.398Z,6.60
2023-12-17T13:58:31.527Z,6.87
2023-12-17T14:00:59.849Z,6.93
2023-12-17T14:03:29.100Z,6.57
2023-12-17T14:05:57.522Z,6.40
2023-12-17T14:08:25.729Z,6.40
2023-12-17T14:10:54.034Z,7.20
2023-12-17T14:13:24.726Z,6.07
2023-12-17T14:15:54.054Z,6.80
2023-12-17T14:18:24.081Z,6.60
2023-12-17T14:20:52.446Z,6.43
2023-12-17T14:23:20.602Z,7.07
2023-12-17T14:25:51.516Z,6.87
2023-12-17T14:28:20.372Z,6.77
2023-12-17T14:30:50.061Z,6.67
2023-12-17T14:33:18.664Z,6.80
2023-12-17T14:35:47.077Z,6.40
2023-12-17T14:38:15.220Z,6.60
2023-12-17T14:40:43.533Z,6.90
2023-12-17T14:43:11.738Z,7.13
2023-12-17T14:45:41.196Z,7.03
2023-12-17T14:48:11.357Z,6.90
2023-12-17T14:50:40.333Z,7.17
2023-12-17T14:53:08.510Z,7.13
2023-12-17T14:55:36.754Z,7.90
2023-12-17T14:58:09.192Z,7.23
2023-12-17T15:00:37.770Z,7.50
2023-12-17T15:03:06.487Z,7.90
2023-12-17T15:05:36.345Z,8.50
2023-12-17T15:08:06.281Z,8.03
2023-12-17T15:10:36.459Z,8.73
2023-12-17T15:13:04.924Z,8.10
2023-12-17T15:15:34.341Z,7.80
2023-12-17T15:18:03.104Z,9.00
2023-12-17T15:20:31.338Z,7.63
2023-12-17T15:23:00.936Z,7.60
2023-12-17T15:25:29.105Z,8.30
2023-12-17T15:27:58.257Z,7.70
2023-12-17T15:30:26.664Z,8.17
2023-12-17T15:32:58.025Z,8.77
2023-12-17T15:35:26.474Z,8.53
2023-12-17T15:37:55.869Z,8.57
2023-12-17T15:40:25.413Z,8.40
2023-12-17T15:42:54.213Z,8.53
2023-12-17T15:45:24.198Z,8.47
2023-12-17T15:47:52.577Z,8.50
2023-12-17T15:50:21.225Z,9.07
2023-12-17T15:52:49.390Z,8.47
2023-12-17T15:55:18.866Z,8.73
2023-12-17T15:57:50.685Z,8.43
2023-12-17T16:00:20.796Z,8.20
2023-12-17T16:02:48.995Z,8.87
2023-12-17T16:05:17.287Z,9.30
2023-12-17T16:07:50.853Z,8.50
2023-12-17T16:10:19.421Z,9.50
2023-12-17T16:12:49.921Z,8.63
2023-12-17T16:15:18.153Z,9.50
2023-12-17T16:17:46.586Z,9.83
2023-12-17T16:20:14.840Z,9.50
2023-12-17T16:22:44.262Z,10.03
2023-12-17T16:25:12.934Z,10.70
2023-12-17T16:27:41.211Z,9.13
2023-12-17T16:30:11.884Z,10.00
2023-12-17T16:32:40.666Z,9.57
2023-12-17T16:35:10.900Z,10.07
2023-12-17T16:37:41.498Z,10.53
2023-12-17T16:40:10.776Z,9.93
2023-12-17T16:42:39.366Z,9.90
2023-12-17T16:45:08.728Z,10.07
2023-12-17T16:47:38.372Z,11.03
2023-12-17T16:50:07.372Z,10.43
2023-12-17T16:52:36.028Z,9.97
2023-12-17T16:55:04.607Z,9.63
2023-12-17T16:57:32.941Z,9.60
2023-12-17T17:00:01.559Z,10.20
2023-12-17T17:02:29.796Z,10.60
2023-12-17T17:04:59.474Z,10.40
2023-12-17T17:07:29.244Z,10.27
2023-12-17T17:09:57.529Z,10.13
2023-12-17T17:12:25.810Z,10.53
2023-12-17T17:14:55.291Z,10.37
2023-12-17T17:17:23.544Z,10.30
2023-12-17T17:19:51.827Z,10.33
2023-12-17T17:22:21.458Z,11.03
2023-12-17T17:24:49.679Z,10.07
2023-12-17T17:27:17.842Z,9.87
2023-12-17T17:29:47.177Z,10.23
2023-12-17T17:32:15.454Z,9.70
2023-12-17T17:34:44.687Z,10.30
2023-12-17T17:37:12.990Z,10.60
2023-12-17T17:39:42.721Z,9.97
2023-12-17T17:42:11.021Z,10.40
2023-12-17T17:44:39.437Z,10.43
2023-12-17T17:47:08.365Z,10.17
2023-12-17T17:49:36.584Z,10.77
2023-12-17T17:52:05.257Z,9.87
2023-12-17T17:54:33.544Z,11.13
2023-12-17T17:57:03.111Z,10.17
2023-12-17T17:59:31.326Z,10.80
2023-12-17T18:01:59.529Z,9.40
2023-12-17T18:04:27.774Z,9.80
2023-12-17T18:06:56.006Z,9.30
2023-12-17T18:09:24.218Z,10.03
2023-12-17T18:11:52.817Z,9.43
2023-12-17T18:14:22.405Z,9.80
2023-12-17T18:16:51.933Z,10.17
2023-12-17T18:19:20.242Z,10.07
2023-12-17T18:21:48.464Z,10.40
2023-12-17T18:24:16.686Z,10.13
2023-12-17T18:26:44.943Z,10.70
2023-12-17T18:29:13.210Z,10.07
2023-12-17T18:31:44.001Z,10.23
2023-12-17T18:34:12.587Z,10.73
2023-12-17T18:36:41.025Z,10.40
2023-12-17T18:39:09.311Z,11.20
2023-12-17T18:41:37.490Z,10.27
2023-12-17T18:44:07.598Z,9.90
2023-12-17T18:46:35.807Z,10.00
2023-12-17T18:49:05.409Z,10.50
2023-12-17T18:51:33.734Z,10.33
2023-12-17T18:54:02.183Z,10.50
2023-12-17T18:56:30.324Z,10.53
2023-12-17T18:58:58.490Z,10.50
2023-12-17T19:01:26.763Z,10.43
2023-12-17T19:03:55.182Z,10.50
2023-12-17T19:06:24.862Z,9.80
2023-12-17T19:08:52.947Z,9.80
2023-12-17T19:11:21.158Z,9.83
2023-12-17T19:13:49.350Z,10.80
2023-12-17T19:16:20.351Z,10.17
2023-12-17T19:18:49.626Z,10.70
2023-12-17T19:21:19.354Z,10.83
2023-12-17T19:23:55.584Z,10.33
2023-12-17T19:26:30.472Z,10.53
2023-12-17T19:29:00.097Z,10.80
2023-12-17T19:31:29.359Z,10.43
2023-12-17T19:34:06.953Z,10.90
2023-12-17T19:36:37.120Z,10.30
2023-12-17T19:39:13.182Z,10.77
2023-12-17T19:41:53.250Z,10.47
2023-12-17T19:44:22.517Z,10.40
2023-12-17T19:46:54.457Z,10.37
2023-12-17T19:49:28.595Z,10.77
2023-12-17T19:52:00.694Z,11.03
2023-12-17T19:54:35.579Z,11.30
2023-12-17T19:57:06.630Z,10.50
2023-12-17T19:59:38.902Z,10.93
2023-12-17T20:02:19.062Z,11.20
2023-12-17T20:04:50.833Z,11.00
2023-12-17T20:07:22.004Z,10.30
2023-12-17T20:10:11.091Z,11.03
2023-12-17T20:12:48.694Z,11.73
2023-12-17T20:15:17.169Z,11.40
2023-12-17T20:17:45.620Z,11.20
2023-12-17T20:20:14.506Z,11.50
2023-12-17T20:22:43.043Z,12.47
2023-12-17T20:25:13.066Z,12.80
2023-12-17T20:27:43.382Z,12.60
2023-12-17T20:30:12.350Z,11.80
2023-12-17T20:32:41.291Z,12.40
2023-12-17T20:35:10.327Z,11.67
2023-12-17T20:37:39.458Z,11.60
2023-12-17T20:40:08.079Z,12.07
2023-12-17T20:42:37.651Z,11.40
2023-12-17T20:45:06.319Z,12.47
2023-12-17T20:47:37.114Z,12.07
2023-12-17T20:50:05.824Z,12.07
2023-12-17T20:52:34.033Z,11.50
2023-12-17T20:55:07.112Z,11.87
2023-12-17T20:57:38.059Z,11.77
2023-12-17T21:00:08.229Z,11.53
2023-12-17T21:02:36.433Z,12.50
2023-12-17T21:05:04.865Z,12.23
2023-12-17T21:07:33.090Z,12.97
2023-12-17T21:10:01.289Z,13.20
2023-12-17T21:12:29.698Z,14.07
2023-12-17T21:14:59.585Z,13.10
2023-12-17T21:17:27.851Z,14.27
2023-12-17T21:19:56.038Z,14.33
2023-12-17T21:22:24.823Z,14.80
2023-12-17T21:24:53.080Z,12.87
2023-12-17T21:27:22.799Z,12.13
2023-12-17T21:29:51.219Z,14.10
2023-12-17T21:32:21.497Z,13.00
2023-12-17T21:34:50.180Z,12.97
2023-12-17T21:37:18.517Z,11.27
2023-12-17T21:39:46.733Z,12.13
2023-12-17T21:42:15.259Z,12.63
2023-12-17T21:45:03.204Z,12.17
2023-12-17T21:47:33.943Z,11.73
2023-12-17T21:50:02.274Z,13.10
2023-12-17T21:52:33.036Z,12.53
2023-12-17T21:55:02.069Z,12.30
2023-12-17T21:57:40.750Z,12.87
2023-12-17T22:00:15.561Z,13.07
2023-12-17T22:02:45.268Z,13.00
2023-12-17T22:05:13.793Z,12.70
2023-12-17T22:07:44.382Z,12.97
2023-12-17T22:10:15.564Z,13.60
2023-12-17T22:12:44.176Z,12.93
2023-12-17T22:15:12.713Z,12.83
2023-12-17T22:17:41.351Z,13.67
2023-12-17T22:20:12.071Z,13.40
2023-12-17T22:22:40.353Z,13.40
2023-12-17T22:25:09.759Z,12.53
2023-12-17T22:27:38.610Z,13.67
2023-12-17T22:30:08.163Z,13.63
2023-12-17T22:32:36.750Z,13.13
2023-12-17T22:35:05.623Z,13.27
2023-12-17T22:37:35.715Z,13.07
2023-12-17T22:40:04.080Z,12.97
2023-12-17T22:42:32.614Z,14.27
2023-12-17T22:45:00.887Z,13.70
2023-12-17T22:47:30.238Z,13.70
2023-12-17T22:49:58.594Z,13.37
2023-12-17T22:52:26.937Z,13.17
2023-12-17T22:54:56.552Z,13.80
2023-12-17T22:57:25.001Z,13.97
2023-12-17T22:59:53.271Z,14.93
2023-12-17T23:02:21.512Z,14.30
2023-12-17T23:04:49.715Z,14.30
2023-12-17T23:07:17.900Z,13.13
2023-12-17T23:09:46.142Z,14.00
2023-12-17T23:12:15.682Z,13.80
2023-12-17T23:14:43.978Z,14.07
2023-12-17T23:17:12.188Z,14.47
2023-12-17T23:19:40.460Z,14.60
2023-12-17T23:22:08.873Z,14.53
2023-12-17T23:24:38.944Z,13.77
2023-12-17T23:27:08.200Z,15.53
2023-12-17T23:29:37.854Z,15.17
2023-12-17T23:32:07.829Z,15.27
2023-12-17T23:34:38.369Z,14.47
2023-12-17T23:37:06.755Z,15.07
2023-12-17T23:39:35.018Z,14.70
2023-12-17T23:42:03.521Z,14.43
2023-12-17T23:44:32.346Z,15.87
2023-12-17T23:47:01.894Z,15.20
2023-12-17T23:49:31.202Z,13.73
2023-12-17T23:51:59.480Z,16.13
2023-12-17T23:54:27.883Z,15.90
2023-12-17T23:56:56.221Z,14.60
2023-12-17T23:59:25.660Z,15.70
